Time;durP1;ratioP1;P1;durP2;ratioP2;P2;SDS_P1;SDS_P2;PMS_P1;PMS_P2;Temp;Humidity;BMP_temperature;BMP_pressure;BME280_temperature;BME280_humidity;BME280_pressure;Samples;Min_cycle;Max_cycle;Signal;HPM_P1;HPM_P2
2022/01/19 00:01:28;;;;;;;;;;;6.30;99.90;;;;;;5031094;28;19913;-57
2022/01/19 00:03:54;;;;;;;;;;;6.30;99.90;;;;;;5031333;28;19921;-56
2022/01/19 00:06:19;;;;;;;;;;;6.30;99.90;;;;;;5034375;28;19963;-57
2022/01/19 00:08:45;;;;;;;;;;;6.30;99.90;;;;;;5031739;28;19948;-53
2022/01/19 00:11:11;;;;;;;;;;;6.30;99.90;;;;;;5031443;28;20000;-56
2022/01/19 00:13:36;;;;;;;;;;;6.40;99.90;;;;;;5031630;28;19920;-58
2022/01/19 00:16:02;;;;;;;;;;;6.40;99.90;;;;;;5030936;28;20358;-55
2022/01/19 00:18:28;;;;;;;;;;;6.40;99.90;;;;;;5015247;28;19921;-57
2022/01/19 00:20:54;;;;;;;;;;;6.40;99.90;;;;;;5032330;28;20377;-56
2022/01/19 00:23:20;;;;;;;;;;;6.40;99.90;;;;;;5030977;28;20015;-57
2022/01/19 00:25:47;;;;;;;;;;;6.40;99.90;;;;;;5030903;28;20271;-55
2022/01/19 00:28:13;;;;;;;;;;;6.30;99.90;;;;;;5031232;28;19916;-56
2022/01/19 00:30:39;;;;;;;;;;;6.30;99.90;;;;;;5031702;28;19921;-55
2022/01/19 00:33:05;;;;;;;;;;;6.30;99.90;;;;;;5033164;28;19913;-57
2022/01/19 00:35:30;;;;;;;;;;;6.30;99.90;;;;;;5030586;28;20292;-58
2022/01/19 00:37:56;;;;;;;;;;;6.30;99.90;;;;;;5030371;28;20010;-57
2022/01/19 00:40:22;;;;;;;;;;;6.30;99.90;;;;;;5030678;28;19913;-52
2022/01/19 00:42:47;;;;;;;;;;;6.20;99.90;;;;;;5030867;28;19913;-54
2022/01/19 00:45:14;;;;;;;;;;;6.30;99.90;;;;;;5049008;28;19919;-56
2022/01/19 00:47:40;;;;;;;;;;;6.30;99.90;;;;;;5030436;28;19932;-57
2022/01/19 00:50:07;;;;;;;;;;;6.20;99.90;;;;;;5030782;28;20290;-56
2022/01/19 00:52:35;;;;;;;;;;;6.30;99.90;;;;;;5030598;28;20011;-55
2022/01/19 00:55:03;;;;;;;;;;;6.30;99.90;;;;;;5030317;28;20454;-57
2022/01/19 00:57:28;;;;;;;;;;;6.30;99.90;;;;;;5032707;28;19917;-57
2022/01/19 00:59:54;;;;;;;;;;;6.30;99.90;;;;;;5031463;28;19913;-57
2022/01/19 01:02:20;;;;;;;;;;;6.20;99.90;;;;;;5030495;28;19953;-55
2022/01/19 01:04:45;;;;;;;;;;;6.30;99.90;;;;;;5030180;28;19936;-56
2022/01/19 01:07:10;;;;;;;;;;;6.20;99.90;;;;;;5029806;28;19909;-56
2022/01/19 01:09:36;;;;;;;;;;;6.20;99.90;;;;;;5032023;28;19913;-55
2022/01/19 01:12:10;;;;;;;;;;;6.20;99.90;;;;;;5031847;28;19956;-56
2022/01/19 01:20:05;;;;;;;;;;;6.20;99.90;;;;;;5029854;28;20035;-57
2022/01/19 01:22:31;;;;;;;;;;;6.20;99.90;;;;;;5029725;28;19913;-56
2022/01/19 01:24:57;;;;;;;;;;;6.20;99.90;;;;;;5029654;28;19914;-55
2022/01/19 01:27:22;;;;;;;;;;;6.20;99.90;;;;;;5032347;28;20377;-57
2022/01/19 01:29:48;;;;;;;;;;;6.20;99.90;;;;;;5030689;28;19910;-55
2022/01/19 01:32:14;;;;;;;;;;;6.20;99.90;;;;;;5029323;28;20350;-57
2022/01/19 01:34:39;;;;;;;;;;;6.20;99.90;;;;;;5029804;28;20434;-55
2022/01/19 01:37:05;;;;;;;;;;;6.20;99.90;;;;;;5013048;28;20297;-56
2022/01/19 01:39:30;;;;;;;;;;;6.10;99.90;;;;;;5031767;28;19913;-57
2022/01/19 01:41:56;;;;;;;;;;;6.10;99.90;;;;;;5030990;28;19991;-57
2022/01/19 01:44:21;;;;;;;;;;;6.20;99.90;;;;;;5029174;28;19924;-55
2022/01/19 01:46:51;;;;;;;;;;;6.10;99.90;;;;;;5029715;28;19920;-55
2022/01/19 01:49:25;;;;;;;;;;;6.10;99.90;;;;;;5029336;28;19921;-53
2022/01/19 01:54:35;;;;;;;;;;;6.10;99.90;;;;;;5031846;28;19916;-58
2022/01/19 01:57:00;;;;;;;;;;;6.10;99.90;;;;;;5030379;28;19917;-56
2022/01/19 01:59:26;;;;;;;;;;;6.10;99.90;;;;;;5029543;28;19913;-54
2022/01/19 02:01:52;;;;;;;;;;;6.10;99.90;;;;;;5028972;28;20326;-57
2022/01/19 02:04:21;;;;;;;;;;;6.10;99.90;;;;;;5029226;28;19999;-57
2022/01/19 02:07:12;;;;;;;;;;;6.10;99.90;;;;;;5014029;28;20370;-55
2022/01/19 02:09:36;;;;;;;;;;;6.10;99.90;;;;;;5031315;28;20297;-56
2022/01/19 02:23:17;;;;;;;;;;;6.10;99.90;;;;;;5028281;28;20008;-53
2022/01/19 02:25:44;;;;;;;;;;;6.10;99.90;;;;;;5028562;28;20004;-57
2022/01/19 02:41:37;;;;;;;;;;;6.00;99.90;;;;;;5028482;28;19920;-52
2022/01/19 02:44:03;;;;;;;;;;;6.00;99.90;;;;;;5013223;28;19920;-56
2022/01/19 02:49:14;;;;;;;;;;;5.90;99.90;;;;;;5028720;28;19943;-56
2022/01/19 02:51:40;;;;;;;;;;;5.90;99.90;;;;;;5029512;28;19928;-57
2022/01/19 02:54:10;;;;;;;;;;;5.90;99.90;;;;;;5030589;28;20399;-58
2022/01/19 02:56:38;;;;;;;;;;;5.90;99.90;;;;;;5027703;28;19913;-56
2022/01/19 02:59:15;;;;;;;;;;;5.90;99.90;;;;;;5028004;28;19914;-57
2022/01/19 03:09:44;;;;;;;;;;;5.90;99.90;;;;;;5028523;28;19913;-56
2022/01/19 03:12:10;;;;;;;;;;;5.90;99.90;;;;;;5030764;28;19948;-57
2022/01/19 03:14:36;;;;;;;;;;;5.90;99.90;;;;;;5027775;28;19924;-56
2022/01/19 03:17:02;;;;;;;;;;;5.90;99.90;;;;;;5012997;28;19921;-57
2022/01/19 03:19:29;;;;;;;;;;;5.90;99.90;;;;;;5027913;28;19921;-58
2022/01/19 03:21:55;;;;;;;;;;;5.90;99.90;;;;;;5027991;28;19963;-56
2022/01/19 03:24:21;;;;;;;;;;;5.90;99.90;;;;;;5031053;28;19956;-57
2022/01/19 03:26:46;;;;;;;;;;;5.90;99.90;;;;;;5028433;28;20338;-57
2022/01/19 03:29:11;;;;;;;;;;;5.90;99.90;;;;;;5012469;28;20433;-56
2022/01/19 03:31:37;;;;;;;;;;;5.80;99.90;;;;;;5028014;28;19917;-57
2022/01/19 03:34:04;;;;;;;;;;;5.90;99.90;;;;;;5026708;28;19914;-56
2022/01/19 03:36:29;;;;;;;;;;;5.80;99.90;;;;;;5029882;28;19914;-56
2022/01/19 03:38:55;;;;;;;;;;;5.80;99.90;;;;;;5044088;28;19909;-56
2022/01/19 03:41:21;;;;;;;;;;;5.90;99.90;;;;;;5027491;28;20412;-57
2022/01/19 03:43:46;;;;;;;;;;;5.80;99.90;;;;;;5027510;28;19913;-56
2022/01/19 03:46:16;;;;;;;;;;;5.80;99.90;;;;;;5012488;28;19920;-57
2022/01/19 03:48:55;;;;;;;;;;;5.80;99.90;;;;;;5028642;28;19917;-56
2022/01/19 03:51:21;;;;;;;;;;;5.80;99.90;;;;;;5027262;28;20380;-55
2022/01/19 03:53:50;;;;;;;;;;;5.80;99.90;;;;;;5027766;28;19910;-56
2022/01/19 03:56:17;;;;;;;;;;;5.80;99.90;;;;;;5027777;28;20047;-57
2022/01/19 03:58:43;;;;;;;;;;;5.80;99.90;;;;;;5027235;28;19929;-56
2022/01/19 04:01:09;;;;;;;;;;;5.80;99.90;;;;;;5027437;28;19913;-57
2022/01/19 04:09:17;;;;;;;;;;;5.80;99.90;;;;;;4989001;28;19969;-57
2022/01/19 04:11:42;;;;;;;;;;;5.80;99.90;;;;;;4985819;28;19913;-52
2022/01/19 04:14:24;;;;;;;;;;;5.80;99.90;;;;;;4985916;28;19913;-57
2022/01/19 04:16:51;;;;;;;;;;;5.80;99.90;;;;;;4985499;28;19980;-58
2022/01/19 04:19:36;;;;;;;;;;;5.80;99.90;;;;;;4985984;28;19929;-57
2022/01/19 04:22:03;;;;;;;;;;;5.80;99.90;;;;;;4971383;28;19918;-57
2022/01/19 04:24:29;;;;;;;;;;;5.80;99.90;;;;;;4988289;28;20006;-57
2022/01/19 04:29:40;;;;;;;;;;;5.80;99.90;;;;;;4985759;28;19961;-56
2022/01/19 04:32:11;;;;;;;;;;;5.80;99.90;;;;;;4985370;28;19997;-57
2022/01/19 04:34:38;;;;;;;;;;;5.70;99.90;;;;;;4985330;28;19918;-56
2022/01/19 04:37:28;;;;;;;;;;;5.80;99.90;;;;;;4985418;28;20494;-55
2022/01/19 05:04:28;;;;;;;;;;;5.70;99.90;;;;;;5030551;28;20389;-56
2022/01/19 05:07:07;;;;;;;;;;;5.70;99.90;;;;;;5015055;28;20002;-58
2022/01/19 05:14:42;;;;;;;;;;;5.80;99.90;;;;;;5030156;28;20278;-56
2022/01/19 05:17:08;;;;;;;;;;;5.70;99.90;;;;;;5036602;28;19921;-58
2022/01/19 05:19:33;;;;;;;;;;;5.70;99.90;;;;;;5029879;28;19921;-58
2022/01/19 05:21:59;;;;;;;;;;;5.80;99.90;;;;;;5029853;28;19914;-56
2022/01/19 05:24:24;;;;;;;;;;;5.70;99.90;;;;;;5032479;28;20703;-56
2022/01/19 05:26:52;;;;;;;;;;;5.80;99.90;;;;;;5030443;28;20325;-57
2022/01/19 05:29:17;;;;;;;;;;;5.80;99.90;;;;;;5029984;28;19952;-57
2022/01/19 05:31:43;;;;;;;;;;;5.80;99.90;;;;;;5029547;28;20014;-54
2022/01/19 05:34:08;;;;;;;;;;;5.80;99.90;;;;;;5029876;28;19914;-57
2022/01/19 05:36:34;;;;;;;;;;;5.80;99.90;;;;;;5032306;28;19913;-58
2022/01/19 05:39:04;;;;;;;;;;;5.80;99.90;;;;;;5032575;28;19913;-57
2022/01/19 05:41:29;;;;;;;;;;;5.80;99.90;;;;;;5029714;28;20425;-58
2022/01/19 05:43:55;;;;;;;;;;;5.90;99.90;;;;;;5029292;28;19992;-57
2022/01/19 05:46:23;;;;;;;;;;;5.90;99.90;;;;;;5014303;28;19921;-58
2022/01/19 05:48:49;;;;;;;;;;;5.90;99.90;;;;;;5013473;28;20679;-56
2022/01/19 05:51:15;;;;;;;;;;;5.90;99.90;;;;;;5032287;28;20007;-57
2022/01/19 05:53:40;;;;;;;;;;;5.90;99.90;;;;;;5029243;28;19975;-53
2022/01/19 05:56:06;;;;;;;;;;;5.90;99.90;;;;;;5028207;28;19936;-57
2022/01/19 05:58:32;;;;;;;;;;;5.90;99.90;;;;;;5028471;28;19922;-56
2022/01/19 06:00:57;;;;;;;;;;;5.90;99.90;;;;;;5028903;28;19956;-58
2022/01/19 06:03:23;;;;;;;;;;;5.90;99.90;;;;;;5031740;28;19913;-58
2022/01/19 06:05:48;;;;;;;;;;;5.90;99.90;;;;;;5029080;28;20385;-55
2022/01/19 06:08:18;;;;;;;;;;;5.90;99.90;;;;;;5028607;28;20408;-58
2022/01/19 06:10:45;;;;;;;;;;;5.90;99.90;;;;;;5028740;28;20286;-58
2022/01/19 06:13:11;;;;;;;;;;;5.90;99.90;;;;;;5028097;28;19924;-57
2022/01/19 06:15:37;;;;;;;;;;;5.90;99.90;;;;;;5030081;28;19909;-55
2022/01/19 06:18:03;;;;;;;;;;;5.90;99.90;;;;;;5030004;28;20759;-58
2022/01/19 06:20:29;;;;;;;;;;;5.90;99.90;;;;;;5028138;28;20062;-56
2022/01/19 06:22:54;;;;;;;;;;;5.90;99.90;;;;;;5027957;28;19913;-54
2022/01/19 06:25:20;;;;;;;;;;;5.90;99.90;;;;;;5028536;28;19913;-59
2022/01/19 06:27:45;;;;;;;;;;;5.90;99.90;;;;;;5029230;28;20409;-57
2022/01/19 06:30:11;;;;;;;;;;;6.00;99.90;;;;;;5031029;28;19913;-58
2022/01/19 06:32:38;;;;;;;;;;;6.00;99.90;;;;;;5027573;28;19917;-56
2022/01/19 06:35:04;;;;;;;;;;;6.00;99.90;;;;;;5027982;28;19919;-57
2022/01/19 06:37:29;;;;;;;;;;;6.00;99.90;;;;;;5027990;28;20020;-58
2022/01/19 06:39:55;;;;;;;;;;;6.00;99.90;;;;;;5027968;28;19921;-58
2022/01/19 06:42:20;;;;;;;;;;;6.00;99.90;;;;;;5031104;28;19913;-57
2022/01/19 06:44:46;;;;;;;;;;;6.00;99.90;;;;;;5029642;28;19983;-54
2022/01/19 06:47:12;;;;;;;;;;;6.00;99.90;;;;;;5027608;28;19956;-57
2022/01/19 06:49:37;;;;;;;;;;;6.00;99.90;;;;;;5028121;28;19913;-56
2022/01/19 06:52:04;;;;;;;;;;;6.10;99.90;;;;;;5028365;28;19914;-56
2022/01/19 06:54:30;;;;;;;;;;;6.00;99.90;;;;;;5030897;28;19909;-57
2022/01/19 06:56:55;;;;;;;;;;;6.00;99.90;;;;;;5029300;28;19940;-58
2022/01/19 06:59:21;;;;;;;;;;;6.00;99.90;;;;;;5028280;28;19939;-57
2022/01/19 07:01:46;;;;;;;;;;;6.00;99.90;;;;;;5012704;28;19961;-57
2022/01/19 07:04:15;;;;;;;;;;;6.00;99.90;;;;;;5028259;28;19957;-57
2022/01/19 07:06:40;;;;;;;;;;;6.00;99.90;;;;;;5029479;28;19921;-58
2022/01/19 07:09:06;;;;;;;;;;;6.00;99.90;;;;;;5030304;28;19962;-52
2022/01/19 07:11:31;;;;;;;;;;;6.00;99.90;;;;;;5027808;28;20010;-55
2022/01/19 07:13:57;;;;;;;;;;;6.00;99.90;;;;;;5030192;28;19913;-53
2022/01/19 07:16:23;;;;;;;;;;;6.00;99.90;;;;;;5027880;28;19920;-58
2022/01/19 07:18:49;;;;;;;;;;;6.10;99.90;;;;;;5012151;28;19928;-57
2022/01/19 07:21:14;;;;;;;;;;;6.00;99.90;;;;;;5031158;28;19909;-57
2022/01/19 07:23:40;;;;;;;;;;;6.00;99.90;;;;;;5027637;28;19913;-55
2022/01/19 07:26:05;;;;;;;;;;;6.00;99.90;;;;;;5030557;28;20286;-55
2022/01/19 07:28:31;;;;;;;;;;;6.00;99.90;;;;;;5027783;28;20402;-56
2022/01/19 07:30:56;;;;;;;;;;;6.00;99.90;;;;;;5010087;28;19960;-57
2022/01/19 07:33:22;;;;;;;;;;;6.00;99.90;;;;;;5030775;28;19974;-56
2022/01/19 07:35:51;;;;;;;;;;;6.10;99.90;;;;;;5028001;28;19920;-58
2022/01/19 07:38:17;;;;;;;;;;;6.00;99.90;;;;;;5027734;28;19921;-57
2022/01/19 07:40:43;;;;;;;;;;;6.10;99.90;;;;;;5027357;28;19967;-55
2022/01/19 07:43:08;;;;;;;;;;;6.10;99.90;;;;;;5027108;28;19917;-53
2022/01/19 07:45:34;;;;;;;;;;;6.20;99.90;;;;;;5028370;28;19918;-56
2022/01/19 07:47:59;;;;;;;;;;;6.20;99.90;;;;;;5024055;28;19956;-55
2022/01/19 07:50:25;;;;;;;;;;;6.20;99.90;;;;;;5020542;28;20409;-67
2022/01/19 07:52:51;;;;;;;;;;;6.20;99.90;;;;;;5023428;28;20349;-68
2022/01/19 07:55:16;;;;;;;;;;;6.20;99.90;;;;;;5022665;28;19971;-67
2022/01/19 07:57:47;;;;;;;;;;;6.20;99.90;;;;;;5027991;28;19983;-67
2022/01/19 08:00:13;;;;;;;;;;;6.20;99.90;;;;;;5029565;28;19999;-67
2022/01/19 08:02:40;;;;;;;;;;;6.20;99.90;;;;;;5027013;28;19921;-68
2022/01/19 08:05:06;;;;;;;;;;;6.20;99.90;;;;;;5026636;28;19921;-66
2022/01/19 08:07:33;;;;;;;;;;;6.20;99.90;;;;;;5029489;28;19972;-70
2022/01/19 08:09:59;;;;;;;;;;;6.20;99.90;;;;;;5027124;28;19966;-65
2022/01/19 08:12:25;;;;;;;;;;;6.20;99.90;;;;;;5020235;28;19917;-67
2022/01/19 08:14:50;;;;;;;;;;;6.20;99.90;;;;;;5021514;28;19968;-65
2022/01/19 08:17:16;;;;;;;;;;;6.30;99.90;;;;;;5023313;28;19932;-67
2022/01/19 08:19:42;;;;;;;;;;;6.30;99.90;;;;;;5020093;28;20382;-66
2022/01/19 08:22:08;;;;;;;;;;;6.30;99.90;;;;;;5026721;28;20297;-66
2022/01/19 08:24:33;;;;;;;;;;;6.30;99.90;;;;;;5024534;28;19917;-65
2022/01/19 08:26:59;;;;;;;;;;;6.30;99.90;;;;;;5026720;28;19913;-65
2022/01/19 08:29:24;;;;;;;;;;;6.30;99.90;;;;;;5042772;28;19967;-66
2022/01/19 08:31:50;;;;;;;;;;;6.30;99.90;;;;;;5024202;28;20302;-67
2022/01/19 08:34:17;;;;;;;;;;;6.20;99.90;;;;;;5022148;28;19917;-65
2022/01/19 08:36:43;;;;;;;;;;;6.30;99.90;;;;;;5023204;28;20298;-67
2022/01/19 08:39:09;;;;;;;;;;;6.30;99.90;;;;;;5024462;28;20378;-67
2022/01/19 08:41:34;;;;;;;;;;;6.30;99.90;;;;;;5026339;28;19920;-68
2022/01/19 08:44:00;;;;;;;;;;;6.40;99.90;;;;;;5023752;28;20010;-67
2022/01/19 08:46:25;;;;;;;;;;;6.40;99.90;;;;;;5020714;28;19921;-67
2022/01/19 08:48:51;;;;;;;;;;;6.40;99.90;;;;;;5027565;28;19971;-66
2022/01/19 08:51:16;;;;;;;;;;;6.40;99.90;;;;;;5024491;28;19924;-68
2022/01/19 08:53:42;;;;;;;;;;;6.40;99.90;;;;;;5025313;28;19919;-67
2022/01/19 08:56:08;;;;;;;;;;;6.40;99.90;;;;;;5024689;28;19917;-68
2022/01/19 08:58:34;;;;;;;;;;;6.50;99.90;;;;;;5022772;28;19925;-67
2022/01/19 09:01:00;;;;;;;;;;;6.50;99.90;;;;;;5022921;28;19920;-69
2022/01/19 09:03:28;;;;;;;;;;;6.40;99.90;;;;;;5023538;28;19967;-68
2022/01/19 09:05:54;;;;;;;;;;;6.40;99.90;;;;;;5026834;28;20610;-68
2022/01/19 09:08:19;;;;;;;;;;;6.40;99.90;;;;;;5025852;28;19925;-69
2022/01/19 09:10:47;;;;;;;;;;;6.40;99.90;;;;;;5022600;28;20055;-67
2022/01/19 09:13:13;;;;;;;;;;;6.40;99.90;;;;;;5022252;28;20000;-69
2022/01/19 09:15:38;;;;;;;;;;;6.50;99.90;;;;;;5024672;28;20038;-68
2022/01/19 09:18:04;;;;;;;;;;;6.50;99.90;;;;;;5014172;28;19971;-68
2022/01/19 09:20:29;;;;;;;;;;;6.50;99.90;;;;;;5024640;28;19925;-68
2022/01/19 09:22:55;;;;;;;;;;;6.60;99.90;;;;;;5026019;28;19920;-68
2022/01/19 09:25:21;;;;;;;;;;;6.60;99.90;;;;;;5025033;28;19917;-66
2022/01/19 09:27:46;;;;;;;;;;;6.60;99.90;;;;;;5025481;28;20338;-68
2022/01/19 09:30:14;;;;;;;;;;;6.70;99.90;;;;;;5023754;28;19928;-67
2022/01/19 09:32:41;;;;;;;;;;;6.60;99.90;;;;;;5024271;28;19913;-68
2022/01/19 09:35:10;;;;;;;;;;;6.60;99.90;;;;;;5023359;28;19913;-69
2022/01/19 09:37:37;;;;;;;;;;;6.60;99.90;;;;;;5025214;28;19987;-69
2022/01/19 09:40:03;;;;;;;;;;;6.60;99.90;;;;;;5022505;28;19921;-69
2022/01/19 09:42:29;;;;;;;;;;;6.60;99.90;;;;;;5024987;28;19917;-66
2022/01/19 09:44:54;;;;;;;;;;;6.60;99.90;;;;;;5026477;28;19975;-68
2022/01/19 09:47:20;;;;;;;;;;;6.60;99.90;;;;;;5011985;28;19924;-68
2022/01/19 09:49:45;;;;;;;;;;;6.60;99.90;;;;;;5025613;28;19932;-65
2022/01/19 09:52:11;;;;;;;;;;;6.70;99.90;;;;;;5024536;28;20075;-66
2022/01/19 09:54:37;;;;;;;;;;;6.60;99.90;;;;;;5021912;28;20397;-66
2022/01/19 09:57:03;;;;;;;;;;;6.60;99.90;;;;;;5028051;28;19921;-68
2022/01/19 09:59:30;;;;;;;;;;;6.70;99.90;;;;;;5025440;28;19917;-66
2022/01/19 10:01:57;;;;;;;;;;;6.70;99.90;;;;;;5025130;28;20441;-68
2022/01/19 10:04:26;;;;;;;;;;;6.70;99.90;;;;;;5020450;28;19917;-67
2022/01/19 10:07:10;;;;;;;;;;;6.70;99.90;;;;;;5023976;28;20289;-68
2022/01/19 10:09:51;;;;;;;;;;;6.70;99.90;;;;;;5025633;28;19921;-67
2022/01/19 10:18:07;;;;;;;;;;;6.70;99.90;;;;;;5022201;28;19929;-68
2022/01/19 10:20:33;;;;;;;;;;;6.70;99.90;;;;;;5023960;28;19929;-68
2022/01/19 10:22:58;;;;;;;;;;;6.70;99.90;;;;;;5022297;28;19913;-68
2022/01/19 10:25:24;;;;;;;;;;;6.70;99.90;;;;;;5019625;28;19960;-67
2022/01/19 10:27:49;;;;;;;;;;;6.70;99.90;;;;;;5020893;28;19917;-68
2022/01/19 10:30:19;;;;;;;;;;;6.80;99.90;;;;;;5021830;28;20371;-68
2022/01/19 10:32:59;;;;;;;;;;;6.80;99.90;;;;;;5008692;28;19920;-67
2022/01/19 10:35:29;;;;;;;;;;;6.80;99.90;;;;;;5024227;28;19913;-68
2022/01/19 10:38:05;;;;;;;;;;;6.90;99.90;;;;;;5021000;28;19932;-69
2022/01/19 10:40:31;;;;;;;;;;;6.90;99.90;;;;;;5022657;28;19913;-68
2022/01/19 10:42:56;;;;;;;;;;;6.90;99.90;;;;;;5022615;28;23443;-67
2022/01/19 10:45:22;;;;;;;;;;;6.90;99.90;;;;;;5021219;28;19956;-66
2022/01/19 10:47:56;;;;;;;;;;;6.90;99.90;;;;;;5022653;28;19920;-69
2022/01/19 10:50:28;;;;;;;;;;;6.90;99.90;;;;;;5021586;28;19918;-68
2022/01/19 10:52:54;;;;;;;;;;;6.90;99.90;;;;;;5020623;28;20330;-66
2022/01/19 10:55:20;;;;;;;;;;;7.00;99.90;;;;;;5020731;28;19982;-70
2022/01/19 10:57:47;;;;;;;;;;;7.00;99.90;;;;;;5019798;28;19917;-67
2022/01/19 11:00:24;;;;;;;;;;;7.10;99.90;;;;;;5021689;28;19921;-65
2022/01/19 11:02:50;;;;;;;;;;;7.00;99.90;;;;;;5021007;28;19959;-68
2022/01/19 11:05:16;;;;;;;;;;;7.10;99.90;;;;;;5021374;28;19917;-66
2022/01/19 11:07:42;;;;;;;;;;;7.10;99.90;;;;;;5022527;28;20028;-68
2022/01/19 11:10:21;;;;;;;;;;;7.10;99.90;;;;;;5020325;28;20004;-69
2022/01/19 11:12:48;;;;;;;;;;;7.10;99.90;;;;;;5019877;28;19937;-68
2022/01/19 11:15:16;;;;;;;;;;;7.00;99.90;;;;;;5020840;28;19940;-67
2022/01/19 11:17:41;;;;;;;;;;;7.10;99.90;;;;;;5022033;28;19924;-65
2022/01/19 11:20:10;;;;;;;;;;;7.10;99.90;;;;;;5022180;28;20291;-65
2022/01/19 11:22:35;;;;;;;;;;;7.10;99.90;;;;;;5020046;28;19982;-67
2022/01/19 11:25:01;;;;;;;;;;;7.10;99.90;;;;;;5022686;28;19917;-67
2022/01/19 11:27:30;;;;;;;;;;;7.10;99.90;;;;;;5020061;28;20020;-67
2022/01/19 11:30:16;;;;;;;;;;;7.10;99.90;;;;;;5022981;28;19924;-68
2022/01/19 11:32:42;;;;;;;;;;;7.10;99.90;;;;;;5022995;28;19920;-69
2022/01/19 11:35:08;;;;;;;;;;;7.10;99.90;;;;;;5021723;28;19913;-67
2022/01/19 11:37:33;;;;;;;;;;;7.10;99.90;;;;;;5019225;28;19970;-67
2022/01/19 11:40:00;;;;;;;;;;;7.10;99.90;;;;;;5021788;28;20036;-67
2022/01/19 11:42:26;;;;;;;;;;;7.20;99.90;;;;;;5019522;28;19913;-68
2022/01/19 11:44:51;;;;;;;;;;;7.10;99.90;;;;;;5023340;28;19928;-68
2022/01/19 11:47:22;;;;;;;;;;;7.10;99.90;;;;;;5021860;28;19932;-68
2022/01/19 11:49:53;;;;;;;;;;;7.10;99.90;;;;;;5020531;28;20008;-65
2022/01/19 11:52:19;;;;;;;;;;;7.10;99.90;;;;;;5018342;28;19920;-67
2022/01/19 11:54:46;;;;;;;;;;;7.00;99.90;;;;;;5024297;28;19944;-70
2022/01/19 11:57:37;;;;;;;;;;;7.10;99.90;;;;;;5023834;28;19982;-68
2022/01/19 12:00:07;;;;;;;;;;;7.10;99.90;;;;;;5024978;28;20370;-67
2022/01/19 12:02:36;;;;;;;;;;;7.10;99.90;;;;;;5023484;28;19971;-67
2022/01/19 12:05:04;;;;;;;;;;;7.10;99.90;;;;;;5024868;28;19967;-69
2022/01/19 12:07:36;;;;;;;;;;;7.10;99.90;;;;;;5028713;28;19913;-68
2022/01/19 12:10:03;;;;;;;;;;;7.10;99.90;;;;;;5021108;28;19917;-67
2022/01/19 12:12:33;;;;;;;;;;;7.10;99.90;;;;;;5023737;28;19924;-68
2022/01/19 12:15:03;;;;;;;;;;;7.00;99.90;;;;;;5028558;28;19970;-67
2022/01/19 12:17:51;;;;;;;;;;;7.10;99.90;;;;;;5029788;28;19921;-68
2022/01/19 12:20:37;;;;;;;;;;;7.20;99.90;;;;;;5024229;28;19936;-66
2022/01/19 12:23:22;;;;;;;;;;;7.20;99.90;;;;;;5022218;28;19947;-66
2022/01/19 12:25:51;;;;;;;;;;;7.20;99.90;;;;;;5028549;28;19963;-67
2022/01/19 12:28:35;;;;;;;;;;;7.30;99.90;;;;;;5018853;28;19913;-68
2022/01/19 12:31:21;;;;;;;;;;;7.30;99.90;;;;;;5027717;28;19939;-64
2022/01/19 12:34:02;;;;;;;;;;;7.30;99.90;;;;;;5022571;28;19928;-65
2022/01/19 12:36:47;;;;;;;;;;;7.40;99.90;;;;;;5021420;28;19913;-68
2022/01/19 12:39:25;;;;;;;;;;;7.40;99.90;;;;;;5018217;28;19926;-65
2022/01/19 12:41:58;;;;;;;;;;;7.40;99.90;;;;;;5024054;28;19913;-64
2022/01/19 12:44:37;;;;;;;;;;;7.40;99.90;;;;;;5026140;28;19917;-65
2022/01/19 12:47:03;;;;;;;;;;;7.40;99.90;;;;;;5023009;28;19917;-66
2022/01/19 12:49:30;;;;;;;;;;;7.40;99.90;;;;;;5023338;28;19913;-64
2022/01/19 12:51:56;;;;;;;;;;;7.40;99.90;;;;;;5022783;28;19917;-67
2022/01/19 12:54:26;;;;;;;;;;;7.50;99.90;;;;;;5026314;28;20291;-67
2022/01/19 12:56:56;;;;;;;;;;;7.40;99.90;;;;;;5026282;28;19917;-67
2022/01/19 12:59:22;;;;;;;;;;;7.40;99.90;;;;;;5024494;28;20386;-68
2022/01/19 13:01:48;;;;;;;;;;;7.50;99.90;;;;;;5022410;28;19968;-67
2022/01/19 13:04:26;;;;;;;;;;;7.50;99.90;;;;;;5020665;28;19964;-67
2022/01/19 13:06:55;;;;;;;;;;;7.50;99.90;;;;;;5034953;28;20052;-65
2022/01/19 13:09:29;;;;;;;;;;;7.50;99.90;;;;;;5021803;28;19921;-67
2022/01/19 13:11:56;;;;;;;;;;;7.50;99.90;;;;;;5024019;28;19956;-68
2022/01/19 13:14:23;;;;;;;;;;;7.60;99.90;;;;;;5022762;28;20333;-68
2022/01/19 13:16:51;;;;;;;;;;;7.60;99.90;;;;;;5022686;28;19917;-67
2022/01/19 13:19:18;;;;;;;;;;;7.70;99.90;;;;;;4956126;28;1826573;-69
2022/01/19 13:21:46;;;;;;;;;;;7.70;99.90;;;;;;5007231;28;19928;-66
2022/01/19 13:24:20;;;;;;;;;;;7.70;99.90;;;;;;5023853;28;19920;-67
2022/01/19 13:26:45;;;;;;;;;;;7.60;99.90;;;;;;5024589;28;19913;-69
2022/01/19 13:29:12;;;;;;;;;;;7.60;99.90;;;;;;5021472;28;19914;-68
2022/01/19 13:31:37;;;;;;;;;;;7.60;99.90;;;;;;5022494;28;19923;-69
2022/01/19 13:34:03;;;;;;;;;;;7.50;99.90;;;;;;5022164;28;20289;-69
2022/01/19 13:36:28;;;;;;;;;;;7.50;99.90;;;;;;5024216;28;19924;-67
2022/01/19 13:38:54;;;;;;;;;;;7.40;99.90;;;;;;5023981;28;19922;-68
2022/01/19 13:41:20;;;;;;;;;;;7.40;99.90;;;;;;5024041;28;19994;-66
2022/01/19 13:43:45;;;;;;;;;;;7.40;99.90;;;;;;5005783;28;19920;-68
2022/01/19 13:46:16;;;;;;;;;;;7.40;99.90;;;;;;5021919;28;20007;-67
2022/01/19 13:48:47;;;;;;;;;;;7.40;99.90;;;;;;5022763;28;19934;-67
2022/01/19 13:51:15;;;;;;;;;;;7.40;99.90;;;;;;5025813;28;20022;-69
2022/01/19 13:53:49;;;;;;;;;;;7.40;99.90;;;;;;5025479;28;19917;-69
2022/01/19 13:56:31;;;;;;;;;;;7.40;99.90;;;;;;5023019;28;19935;-66
2022/01/19 13:59:04;;;;;;;;;;;7.40;99.90;;;;;;5007826;28;20370;-68
2022/01/19 14:01:33;;;;;;;;;;;7.40;99.90;;;;;;5022322;28;19921;-67
2022/01/19 14:04:04;;;;;;;;;;;7.30;99.90;;;;;;5018553;28;19921;-67
2022/01/19 14:06:31;;;;;;;;;;;7.40;99.90;;;;;;5025914;28;19914;-68
2022/01/19 14:09:02;;;;;;;;;;;7.30;99.90;;;;;;5024042;28;19957;-68
2022/01/19 14:11:28;;;;;;;;;;;7.40;99.90;;;;;;5024670;28;20027;-66
2022/01/19 14:14:01;;;;;;;;;;;7.40;99.90;;;;;;5026484;28;19964;-68
2022/01/19 14:16:37;;;;;;;;;;;7.40;99.90;;;;;;5019670;28;19939;-68
2022/01/19 14:19:05;;;;;;;;;;;7.40;99.90;;;;;;5024391;28;20783;-67
2022/01/19 14:21:31;;;;;;;;;;;7.50;99.90;;;;;;5025737;28;19920;-67
2022/01/19 14:23:58;;;;;;;;;;;7.50;99.90;;;;;;5029737;28;19916;-67
2022/01/19 14:26:24;;;;;;;;;;;7.50;99.90;;;;;;5023717;28;19953;-67
2022/01/19 14:29:08;;;;;;;;;;;7.60;99.90;;;;;;5025296;28;19947;-67
2022/01/19 14:31:33;;;;;;;;;;;7.60;99.90;;;;;;5024459;28;19914;-65
2022/01/19 14:33:59;;;;;;;;;;;7.70;99.90;;;;;;5025775;28;19913;-66
2022/01/19 14:36:25;;;;;;;;;;;7.70;99.90;;;;;;5022813;28;20401;-66
2022/01/19 14:38:58;;;;;;;;;;;7.70;99.90;;;;;;5026514;28;20011;-66
2022/01/19 14:41:30;;;;;;;;;;;7.80;99.90;;;;;;5024764;28;19940;-66
2022/01/19 14:44:03;;;;;;;;;;;7.70;99.90;;;;;;5025728;28;19913;-66
2022/01/19 14:46:43;;;;;;;;;;;7.80;99.90;;;;;;5020108;28;20354;-66
2022/01/19 14:49:10;;;;;;;;;;;7.80;99.90;;;;;;5027528;28;20016;-68
2022/01/19 14:51:37;;;;;;;;;;;7.80;99.90;;;;;;5020690;28;19917;-67
2022/01/19 14:54:05;;;;;;;;;;;7.80;99.90;;;;;;5024408;28;19996;-66
2022/01/19 14:56:31;;;;;;;;;;;7.70;99.90;;;;;;5024448;28;20382;-65
2022/01/19 14:59:05;;;;;;;;;;;7.70;99.90;;;;;;5024526;28;19948;-66
2022/01/19 15:01:30;;;;;;;;;;;7.60;99.90;;;;;;5022789;28;19941;-68
2022/01/19 15:03:56;;;;;;;;;;;7.60;99.90;;;;;;5025067;28;19959;-67
2022/01/19 15:06:22;;;;;;;;;;;7.60;99.90;;;;;;5025970;28;19952;-68
2022/01/19 15:08:47;;;;;;;;;;;7.60;99.90;;;;;;5022762;28;20006;-67
2022/01/19 15:11:15;;;;;;;;;;;7.60;99.90;;;;;;5022777;28;19921;-68
2022/01/19 15:13:41;;;;;;;;;;;7.60;99.90;;;;;;5021580;28;20408;-67
2022/01/19 15:16:07;;;;;;;;;;;7.60;99.90;;;;;;5020296;28;19913;-66
2022/01/19 15:18:32;;;;;;;;;;;7.60;99.90;;;;;;5024893;28;19987;-64
2022/01/19 15:20:58;;;;;;;;;;;7.50;99.90;;;;;;5026016;28;19913;-66
2022/01/19 15:23:23;;;;;;;;;;;7.50;99.90;;;;;;5023999;28;19952;-68
2022/01/19 15:25:49;;;;;;;;;;;7.60;99.90;;;;;;5021425;28;20266;-67
2022/01/19 15:28:15;;;;;;;;;;;7.50;99.90;;;;;;5020385;28;19928;-66
2022/01/19 15:30:43;;;;;;;;;;;7.50;99.90;;;;;;5020691;28;19914;-67
2022/01/19 15:33:09;;;;;;;;;;;7.50;99.90;;;;;;5022196;28;20004;-68
2022/01/19 15:35:37;;;;;;;;;;;7.50;99.90;;;;;;5005507;28;19913;-68
2022/01/19 15:38:03;;;;;;;;;;;7.50;99.90;;;;;;5021500;28;19926;-67
2022/01/19 15:40:28;;;;;;;;;;;7.50;99.90;;;;;;5023740;28;20079;-67
2022/01/19 15:42:55;;;;;;;;;;;7.50;99.90;;;;;;5006400;28;20596;-66
2022/01/19 15:45:20;;;;;;;;;;;7.40;99.90;;;;;;5020030;28;19920;-66
2022/01/19 15:47:46;;;;;;;;;;;7.40;99.90;;;;;;5022815;28;20008;-67
2022/01/19 15:50:12;;;;;;;;;;;7.40;99.90;;;;;;5022344;28;19947;-67
2022/01/19 15:52:38;;;;;;;;;;;7.40;99.90;;;;;;5020543;28;19921;-65
2022/01/19 15:55:05;;;;;;;;;;;7.40;99.90;;;;;;5020719;28;19913;-66
2022/01/19 15:57:30;;;;;;;;;;;7.30;99.90;;;;;;5019642;28;19926;-67
2022/01/19 15:59:58;;;;;;;;;;;7.30;99.90;;;;;;5023372;28;19924;-67
2022/01/19 16:02:24;;;;;;;;;;;7.30;99.90;;;;;;5022577;28;19921;-67